Aviation Digital Data Service (ADDS)

Output produced by METARs form (0359 UTC 24 January 2019)
found at http://www.aviationweather.gov/metar/data/
 
METAR text: EFMA 240350Z AUTO 11001KT CAVOK M08/M09 Q1014
Conditions at: EFMA (MARIEHAMN/ALAND , FI) observed 0350 UTC 24 January 2019
Temperature: -8.0°C (18°F)
Dewpoint: -9.0°C (16°F) [RH = 92%]
Pressure (altimeter): 29.94 inches Hg (1014.0 mb)
Winds: from the ESE (110 degrees) at 1 MPH (1 knots; 0.5 m/s)
Visibility: 6 or more miles (10+ km)
Ceiling: ceiling and visibility are OK
Clouds: unknown
Weather: no significant weather observed at this time

METAR text: EFMA 240320Z AUTO VRB01KT 8000 0750 R21/P2000D BCFG NSC M09/M10 Q1014
Conditions at: EFMA (MARIEHAMN/ALAND , FI) observed 0320 UTC 24 January 2019
Temperature: -9.0°C (16°F)
Dewpoint: -10.0°C (14°F) [RH = 92%]
Pressure (altimeter): 29.94 inches Hg (1014.0 mb)
Winds: variable direction winds at 1 MPH (1 knots; 0.5 m/s)
Visibility: 5 miles ( 8 km)
Ceiling: at least 12,000 feet AGL
Clouds: sky clear below 12,000 feet AGL
Weather: BCFG  (patches of fog)

METAR text: EFMA 240250Z AUTO 31001KT 1200 R21/P2000U BCFG NSC M09/M09 Q1014
Conditions at: EFMA (MARIEHAMN/ALAND , FI) observed 0250 UTC 24 January 2019
Temperature: -9.0°C (16°F)
Dewpoint: -9.0°C (16°F) [RH = 100%]
Pressure (altimeter): 29.94 inches Hg (1014.0 mb)
Winds: from the NW (310 degrees) at 1 MPH (1 knots; 0.5 m/s)
Visibility: 0.75 miles (1.21 km)
Ceiling: at least 12,000 feet AGL
Clouds: sky clear below 12,000 feet AGL
Weather: BCFG  (patches of fog)

METAR text: EFMA 240220Z AUTO VRB01KT 1100 0600 R21/P2000D BCFG NSC M07/M08 Q1014
Conditions at: EFMA (MARIEHAMN/ALAND , FI) observed 0220 UTC 24 January 2019
Temperature: -7.0°C (19°F)
Dewpoint: -8.0°C (18°F) [RH = 93%]
Pressure (altimeter): 29.94 inches Hg (1014.0 mb)
Winds: variable direction winds at 1 MPH (1 knots; 0.5 m/s)
Visibility: 0.68 miles (1.09 km)
Ceiling: at least 12,000 feet AGL
Clouds: sky clear below 12,000 feet AGL
Weather: BCFG  (patches of fog)

METAR text: EFMA 240150Z AUTO VRB01KT 6000 0700 R21/P2000U NSC M07/M08 Q1014
Conditions at: EFMA (MARIEHAMN/ALAND , FI) observed 0150 UTC 24 January 2019
Temperature: -7.0°C (19°F)
Dewpoint: -8.0°C (18°F) [RH = 93%]
Pressure (altimeter): 29.94 inches Hg (1014.0 mb)
Winds: variable direction winds at 1 MPH (1 knots; 0.5 m/s)
Visibility: 4 miles ( 6 km)
Ceiling: at least 12,000 feet AGL
Clouds: sky clear below 12,000 feet AGL
Weather: no significant weather observed at this time

METAR text: EFMA 240120Z AUTO 00000KT CAVOK M06/M06 Q1013
Conditions at: EFMA (MARIEHAMN/ALAND , FI) observed 0120 UTC 24 January 2019
Temperature: -6.0°C (21°F)
Dewpoint: -6.0°C (21°F) [RH = 100%]
Pressure (altimeter): 29.91 inches Hg (1013.0 mb)
Winds: calm
Visibility: 6 or more miles (10+ km)
Ceiling: ceiling and visibility are OK
Clouds: unknown
Weather: no significant weather observed at this time

METAR text: EFMA 240050Z AUTO VRB01KT CAVOK M05/M06 Q1013
Conditions at: EFMA (MARIEHAMN/ALAND , FI) observed 0050 UTC 24 January 2019
Temperature: -5.0°C (23°F)
Dewpoint: -6.0°C (21°F) [RH = 93%]
Pressure (altimeter): 29.91 inches Hg (1013.0 mb)
Winds: variable direction winds at 1 MPH (1 knots; 0.5 m/s)
Visibility: 6 or more miles (10+ km)
Ceiling: ceiling and visibility are OK
Clouds: unknown
Weather: no significant weather observed at this time

METAR text: EFMA 240020Z AUTO VRB01KT CAVOK M04/M06 Q1013
Conditions at: EFMA (MARIEHAMN/ALAND , FI) observed 0020 UTC 24 January 2019
Temperature: -4.0°C (25°F)
Dewpoint: -6.0°C (21°F) [RH = 86%]
Pressure (altimeter): 29.91 inches Hg (1013.0 mb)
Winds: variable direction winds at 1 MPH (1 knots; 0.5 m/s)
Visibility: 6 or more miles (10+ km)
Ceiling: ceiling and visibility are OK
Clouds: unknown
Weather: no significant weather observed at this time

METAR text: EFMA 232350Z AUTO 28003KT 250V320 CAVOK M02/M05 Q1013
Conditions at: EFMA (MARIEHAMN/ALAND , FI) observed 2350 UTC 23 January 2019
Temperature: -2.0°C (28°F)
Dewpoint: -5.0°C (23°F) [RH = 80%]
Pressure (altimeter): 29.91 inches Hg (1013.0 mb)
Winds: from the W (280 degrees) at 3 MPH (3 knots; 1.5 m/s)
Visibility: 6 or more miles (10+ km)
Ceiling: ceiling and visibility are OK
Clouds: unknown
Weather: no significant weather observed at this time

METAR text: EFMA 232320Z AUTO 30004KT 260V320 CAVOK M02/M05 Q1012
Conditions at: EFMA (MARIEHAMN/ALAND , FI) observed 2320 UTC 23 January 2019
Temperature: -2.0°C (28°F)
Dewpoint: -5.0°C (23°F) [RH = 80%]
Pressure (altimeter): 29.88 inches Hg (1012.0 mb)
Winds: from the WNW (300 degrees) at 5 MPH (4 knots; 2.1 m/s)
Visibility: 6 or more miles (10+ km)
Ceiling: ceiling and visibility are OK
Clouds: unknown
Weather: no significant weather observed at this time

METAR text: EFMA 232250Z AUTO 28005KT 250V320 CAVOK M01/M04 Q1012
Conditions at: EFMA (MARIEHAMN/ALAND , FI) observed 2250 UTC 23 January 2019
Temperature: -1.0°C (30°F)
Dewpoint: -4.0°C (25°F) [RH = 80%]
Pressure (altimeter): 29.88 inches Hg (1012.0 mb)
Winds: from the W (280 degrees) at 6 MPH (5 knots; 2.6 m/s)
Visibility: 6 or more miles (10+ km)
Ceiling: ceiling and visibility are OK
Clouds: unknown
Weather: no significant weather observed at this time

METAR text: EFMA 232220Z AUTO 29004KT 250V320 CAVOK M01/M04 Q1012
Conditions at: EFMA (MARIEHAMN/ALAND , FI) observed 2220 UTC 23 January 2019
Temperature: -1.0°C (30°F)
Dewpoint: -4.0°C (25°F) [RH = 80%]
Pressure (altimeter): 29.88 inches Hg (1012.0 mb)
Winds: from the WNW (290 degrees) at 5 MPH (4 knots; 2.1 m/s)
Visibility: 6 or more miles (10+ km)
Ceiling: ceiling and visibility are OK
Clouds: unknown
Weather: no significant weather observed at this time

METAR text: EFMA 232150Z AUTO 29003KT 260V330 CAVOK M01/M03 Q1012
Conditions at: EFMA (MARIEHAMN/ALAND , FI) observed 2150 UTC 23 January 2019
Temperature: -1.0°C (30°F)
Dewpoint: -3.0°C (27°F) [RH = 86%]
Pressure (altimeter): 29.88 inches Hg (1012.0 mb)
Winds: from the WNW (290 degrees) at 3 MPH (3 knots; 1.5 m/s)
Visibility: 6 or more miles (10+ km)
Ceiling: ceiling and visibility are OK
Clouds: unknown
Weather: no significant weather observed at this time

METAR text: EFMA 232120Z AUTO 28006KT 250V310 CAVOK M01/M03 Q1011
Conditions at: EFMA (MARIEHAMN/ALAND , FI) observed 2120 UTC 23 January 2019
Temperature: -1.0°C (30°F)
Dewpoint: -3.0°C (27°F) [RH = 86%]
Pressure (altimeter): 29.85 inches Hg (1011.0 mb)
Winds: from the W (280 degrees) at 7 MPH (6 knots; 3.1 m/s)
Visibility: 6 or more miles (10+ km)
Ceiling: ceiling and visibility are OK
Clouds: unknown
Weather: no significant weather observed at this time

METAR text: EFMA 232050Z AUTO 27006KT 240V300 CAVOK M01/M03 Q1011
Conditions at: EFMA (MARIEHAMN/ALAND , FI) observed 2050 UTC 23 January 2019
Temperature: -1.0°C (30°F)
Dewpoint: -3.0°C (27°F) [RH = 86%]
Pressure (altimeter): 29.85 inches Hg (1011.0 mb)
Winds: from the W (270 degrees) at 7 MPH (6 knots; 3.1 m/s)
Visibility: 6 or more miles (10+ km)
Ceiling: ceiling and visibility are OK
Clouds: unknown
Weather: no significant weather observed at this time

METAR text: EFMA 232020Z AUTO 26005KT 230V300 CAVOK M01/M03 Q1011
Conditions at: EFMA (MARIEHAMN/ALAND , FI) observed 2020 UTC 23 January 2019
Temperature: -1.0°C (30°F)
Dewpoint: -3.0°C (27°F) [RH = 86%]
Pressure (altimeter): 29.85 inches Hg (1011.0 mb)
Winds: from the W (260 degrees) at 6 MPH (5 knots; 2.6 m/s)
Visibility: 6 or more miles (10+ km)
Ceiling: ceiling and visibility are OK
Clouds: unknown
Weather: no significant weather observed at this time

METAR text: EFMA 231950Z AUTO 26005KT 220V310 CAVOK M01/M03 Q1011
Conditions at: EFMA (MARIEHAMN/ALAND , FI) observed 1950 UTC 23 January 2019
Temperature: -1.0°C (30°F)
Dewpoint: -3.0°C (27°F) [RH = 86%]
Pressure (altimeter): 29.85 inches Hg (1011.0 mb)
Winds: from the W (260 degrees) at 6 MPH (5 knots; 2.6 m/s)
Visibility: 6 or more miles (10+ km)
Ceiling: ceiling and visibility are OK
Clouds: unknown
Weather: no significant weather observed at this time

METAR text: EFMA 231920Z AUTO 26004KT 210V300 CAVOK M01/M03 Q1011
Conditions at: EFMA (MARIEHAMN/ALAND , FI) observed 1920 UTC 23 January 2019
Temperature: -1.0°C (30°F)
Dewpoint: -3.0°C (27°F) [RH = 86%]
Pressure (altimeter): 29.85 inches Hg (1011.0 mb)
Winds: from the W (260 degrees) at 5 MPH (4 knots; 2.1 m/s)
Visibility: 6 or more miles (10+ km)
Ceiling: ceiling and visibility are OK
Clouds: unknown
Weather: no significant weather observed at this time

METAR text: EFMA 231850Z AUTO 25004KT 210V300 9999 FEW007 OVC052 M01/M03 Q1010
Conditions at: EFMA (MARIEHAMN/ALAND , FI) observed 1850 UTC 23 January 2019
Temperature: -1.0°C (30°F)
Dewpoint: -3.0°C (27°F) [RH = 86%]
Pressure (altimeter): 29.82 inches Hg (1010.0 mb)
Winds: from the WSW (250 degrees) at 5 MPH (4 knots; 2.1 m/s)
Visibility: 6 or more miles (10+ km)
Ceiling: 5200 feet AGL
Clouds: few clouds at 700 feet AGL
overcast cloud deck at 5200 feet AGL
Weather: no significant weather observed at this time

METAR text: EFMA 231820Z AUTO 24005KT 210V280 9999 FEW007 OVC053 M01/M03 Q1010
Conditions at: EFMA (MARIEHAMN/ALAND , FI) observed 1820 UTC 23 January 2019
Temperature: -1.0°C (30°F)
Dewpoint: -3.0°C (27°F) [RH = 86%]
Pressure (altimeter): 29.82 inches Hg (1010.0 mb)
Winds: from the WSW (240 degrees) at 6 MPH (5 knots; 2.6 m/s)
Visibility: 6 or more miles (10+ km)
Ceiling: 5300 feet AGL
Clouds: few clouds at 700 feet AGL
overcast cloud deck at 5300 feet AGL
Weather: no significant weather observed at this time

METAR text: EFMA 231750Z AUTO 24004KT 210V280 CAVOK M01/M03 Q1010
Conditions at: EFMA (MARIEHAMN/ALAND , FI) observed 1750 UTC 23 January 2019
Temperature: -1.0°C (30°F)
Dewpoint: -3.0°C (27°F) [RH = 86%]
Pressure (altimeter): 29.82 inches Hg (1010.0 mb)
Winds: from the WSW (240 degrees) at 5 MPH (4 knots; 2.1 m/s)
Visibility: 6 or more miles (10+ km)
Ceiling: ceiling and visibility are OK
Clouds: unknown
Weather: no significant weather observed at this time

METAR text: EFMA 231720Z AUTO 22003KT CAVOK M01/M03 Q1010
Conditions at: EFMA (MARIEHAMN/ALAND , FI) observed 1720 UTC 23 January 2019
Temperature: -1.0°C (30°F)
Dewpoint: -3.0°C (27°F) [RH = 86%]
Pressure (altimeter): 29.82 inches Hg (1010.0 mb)
Winds: from the SW (220 degrees) at 3 MPH (3 knots; 1.5 m/s)
Visibility: 6 or more miles (10+ km)
Ceiling: ceiling and visibility are OK
Clouds: unknown
Weather: no significant weather observed at this time

METAR text: EFMA 231650Z AUTO 23003KT 200V270 CAVOK M01/M03 Q1010
Conditions at: EFMA (MARIEHAMN/ALAND , FI) observed 1650 UTC 23 January 2019
Temperature: -1.0°C (30°F)
Dewpoint: -3.0°C (27°F) [RH = 86%]
Pressure (altimeter): 29.82 inches Hg (1010.0 mb)
Winds: from the SW (230 degrees) at 3 MPH (3 knots; 1.5 m/s)
Visibility: 6 or more miles (10+ km)
Ceiling: ceiling and visibility are OK
Clouds: unknown
Weather: no significant weather observed at this time

METAR text: EFMA 231620Z AUTO VRB02KT CAVOK M01/M04 Q1010
Conditions at: EFMA (MARIEHAMN/ALAND , FI) observed 1620 UTC 23 January 2019
Temperature: -1.0°C (30°F)
Dewpoint: -4.0°C (25°F) [RH = 80%]
Pressure (altimeter): 29.82 inches Hg (1010.0 mb)
Winds: variable direction winds at 2 MPH (2 knots; 1.0 m/s)
Visibility: 6 or more miles (10+ km)
Ceiling: ceiling and visibility are OK
Clouds: unknown
Weather: no significant weather observed at this time

METAR text: EFMA 231550Z AUTO 22003KT CAVOK M02/M04 Q1010
Conditions at: EFMA (MARIEHAMN/ALAND , FI) observed 1550 UTC 23 January 2019
Temperature: -2.0°C (28°F)
Dewpoint: -4.0°C (25°F) [RH = 86%]
Pressure (altimeter): 29.82 inches Hg (1010.0 mb)
Winds: from the SW (220 degrees) at 3 MPH (3 knots; 1.5 m/s)
Visibility: 6 or more miles (10+ km)
Ceiling: ceiling and visibility are OK
Clouds: unknown
Weather: no significant weather observed at this time

METAR text: EFMA 231520Z AUTO 23003KT CAVOK M03/M05 Q1009
Conditions at: EFMA (MARIEHAMN/ALAND , FI) observed 1520 UTC 23 January 2019
Temperature: -3.0°C (27°F)
Dewpoint: -5.0°C (23°F) [RH = 86%]
Pressure (altimeter): 29.79 inches Hg (1009.0 mb)
Winds: from the SW (230 degrees) at 3 MPH (3 knots; 1.5 m/s)
Visibility: 6 or more miles (10+ km)
Ceiling: ceiling and visibility are OK
Clouds: unknown
Weather: no significant weather observed at this time

METAR text: EFMA 231450Z AUTO 23002KT CAVOK M05/M06 Q1009
Conditions at: EFMA (MARIEHAMN/ALAND , FI) observed 1450 UTC 23 January 2019
Temperature: -5.0°C (23°F)
Dewpoint: -6.0°C (21°F) [RH = 93%]
Pressure (altimeter): 29.79 inches Hg (1009.0 mb)
Winds: from the SW (230 degrees) at 2 MPH (2 knots; 1.0 m/s)
Visibility: 6 or more miles (10+ km)
Ceiling: ceiling and visibility are OK
Clouds: unknown
Weather: no significant weather observed at this time

METAR text: EFMA 231420Z AUTO 24002KT 4400 1600 BR NSC M05/M06 Q1009
Conditions at: EFMA (MARIEHAMN/ALAND , FI) observed 1420 UTC 23 January 2019
Temperature: -5.0°C (23°F)
Dewpoint: -6.0°C (21°F) [RH = 93%]
Pressure (altimeter): 29.79 inches Hg (1009.0 mb)
Winds: from the WSW (240 degrees) at 2 MPH (2 knots; 1.0 m/s)
Visibility: 2.73 miles (4.39 km)
Ceiling: at least 12,000 feet AGL
Clouds: sky clear below 12,000 feet AGL
Weather: BR  (mist)

METAR text: EFMA 231350Z AUTO 23002KT CAVOK M04/M05 Q1009
Conditions at: EFMA (MARIEHAMN/ALAND , FI) observed 1350 UTC 23 January 2019
Temperature: -4.0°C (25°F)
Dewpoint: -5.0°C (23°F) [RH = 93%]
Pressure (altimeter): 29.79 inches Hg (1009.0 mb)
Winds: from the SW (230 degrees) at 2 MPH (2 knots; 1.0 m/s)
Visibility: 6 or more miles (10+ km)
Ceiling: ceiling and visibility are OK
Clouds: unknown
Weather: no significant weather observed at this time

METAR text: EFMA 231320Z AUTO 22002KT CAVOK M02/M04 Q1009
Conditions at: EFMA (MARIEHAMN/ALAND , FI) observed 1320 UTC 23 January 2019
Temperature: -2.0°C (28°F)
Dewpoint: -4.0°C (25°F) [RH = 86%]
Pressure (altimeter): 29.79 inches Hg (1009.0 mb)
Winds: from the SW (220 degrees) at 2 MPH (2 knots; 1.0 m/s)
Visibility: 6 or more miles (10+ km)
Ceiling: ceiling and visibility are OK
Clouds: unknown
Weather: no significant weather observed at this time

METAR text: EFMA 231250Z AUTO 24004KT 210V280 CAVOK M01/M04 Q1009
Conditions at: EFMA (MARIEHAMN/ALAND , FI) observed 1250 UTC 23 January 2019
Temperature: -1.0°C (30°F)
Dewpoint: -4.0°C (25°F) [RH = 80%]
Pressure (altimeter): 29.79 inches Hg (1009.0 mb)
Winds: from the WSW (240 degrees) at 5 MPH (4 knots; 2.1 m/s)
Visibility: 6 or more miles (10+ km)
Ceiling: ceiling and visibility are OK
Clouds: unknown
Weather: no significant weather observed at this time

METAR text: EFMA 231220Z AUTO 24005KT 200V280 9999 FEW009 M01/M04 Q1009
Conditions at: EFMA (MARIEHAMN/ALAND , FI) observed 1220 UTC 23 January 2019
Temperature: -1.0°C (30°F)
Dewpoint: -4.0°C (25°F) [RH = 80%]
Pressure (altimeter): 29.79 inches Hg (1009.0 mb)
Winds: from the WSW (240 degrees) at 6 MPH (5 knots; 2.6 m/s)
Visibility: 6 or more miles (10+ km)
Ceiling: at least 12,000 feet AGL
Clouds: few clouds at 900 feet AGL
Weather: no significant weather observed at this time

METAR text: EFMA 231150Z AUTO VRB02KT CAVOK M03/M04 Q1008
Conditions at: EFMA (MARIEHAMN/ALAND , FI) observed 1150 UTC 23 January 2019
Temperature: -3.0°C (27°F)
Dewpoint: -4.0°C (25°F) [RH = 93%]
Pressure (altimeter): 29.76 inches Hg (1008.0 mb)
Winds: variable direction winds at 2 MPH (2 knots; 1.0 m/s)
Visibility: 6 or more miles (10+ km)
Ceiling: ceiling and visibility are OK
Clouds: unknown
Weather: no significant weather observed at this time

METAR text: EFMA 231120Z AUTO 18003KT 0550 R21/0600N FZFG NSC M03/M05 Q1008
Conditions at: EFMA (MARIEHAMN/ALAND , FI) observed 1120 UTC 23 January 2019
Temperature: -3.0°C (27°F)
Dewpoint: -5.0°C (23°F) [RH = 86%]
Pressure (altimeter): 29.76 inches Hg (1008.0 mb)
Winds: from the S (180 degrees) at 3 MPH (3 knots; 1.5 m/s)
Visibility: 0.34 miles (0.55 km)
Ceiling: at least 12,000 feet AGL
Clouds: sky clear below 12,000 feet AGL
Weather: FZFG  (freezing fog)

METAR text: EFMA 231050Z VRB02KT 9999 R21/1000 BR NSC M05/M05 Q1008
Conditions at: EFMA (MARIEHAMN/ALAND , FI) observed 1050 UTC 23 January 2019
Temperature: -5.0°C (23°F)
Dewpoint: -5.0°C (23°F) [RH = 100%]
Pressure (altimeter): 29.76 inches Hg (1008.0 mb)
Winds: variable direction winds at 2 MPH (2 knots; 1.0 m/s)
Visibility: 6 or more miles (10+ km)
Ceiling: at least 12,000 feet AGL
Clouds: sky clear below 12,000 feet AGL
Weather: BR  (mist)

METAR text: EFMA 231020Z VRB01KT 9999 BR NSC M04/M05 Q1008
Conditions at: EFMA (MARIEHAMN/ALAND , FI) observed 1020 UTC 23 January 2019
Temperature: -4.0°C (25°F)
Dewpoint: -5.0°C (23°F) [RH = 93%]
Pressure (altimeter): 29.76 inches Hg (1008.0 mb)
Winds: variable direction winds at 1 MPH (1 knots; 0.5 m/s)
Visibility: 6 or more miles (10+ km)
Ceiling: at least 12,000 feet AGL
Clouds: sky clear below 12,000 feet AGL
Weather: BR  (mist)

METAR text: EFMA 230950Z AUTO VRB01KT 9999 0650 R21/P2000U NSC M05/M06 Q1008
Conditions at: EFMA (MARIEHAMN/ALAND , FI) observed 0950 UTC 23 January 2019
Temperature: -5.0°C (23°F)
Dewpoint: -6.0°C (21°F) [RH = 93%]
Pressure (altimeter): 29.76 inches Hg (1008.0 mb)
Winds: variable direction winds at 1 MPH (1 knots; 0.5 m/s)
Visibility: 6 or more miles (10+ km)
Ceiling: at least 12,000 feet AGL
Clouds: sky clear below 12,000 feet AGL
Weather: no significant weather observed at this time

METAR text: EFMA 230920Z AUTO 00000KT 0350 R21/0750 FZFG NSC M06/M07 Q1008
Conditions at: EFMA (MARIEHAMN/ALAND , FI) observed 0920 UTC 23 January 2019
Temperature: -6.0°C (21°F)
Dewpoint: -7.0°C (19°F) [RH = 93%]
Pressure (altimeter): 29.76 inches Hg (1008.0 mb)
Winds: calm
Visibility: 0.22 miles (0.35 km)
Ceiling: at least 12,000 feet AGL
Clouds: sky clear below 12,000 feet AGL
Weather: FZFG  (freezing fog)

METAR text: EFMA 230850Z AUTO VRB01KT CAVOK M04/M05 Q1008
Conditions at: EFMA (MARIEHAMN/ALAND , FI) observed 0850 UTC 23 January 2019
Temperature: -4.0°C (25°F)
Dewpoint: -5.0°C (23°F) [RH = 93%]
Pressure (altimeter): 29.76 inches Hg (1008.0 mb)
Winds: variable direction winds at 1 MPH (1 knots; 0.5 m/s)
Visibility: 6 or more miles (10+ km)
Ceiling: ceiling and visibility are OK
Clouds: unknown
Weather: no significant weather observed at this time

METAR text: EFMA 230820Z 30004KT 9999 FEW004 OVC062 M03/M04 Q1008
Conditions at: EFMA (MARIEHAMN/ALAND , FI) observed 0820 UTC 23 January 2019
Temperature: -3.0°C (27°F)
Dewpoint: -4.0°C (25°F) [RH = 93%]
Pressure (altimeter): 29.76 inches Hg (1008.0 mb)
Winds: from the WNW (300 degrees) at 5 MPH (4 knots; 2.1 m/s)
Visibility: 6 or more miles (10+ km)
Ceiling: 6200 feet AGL
Clouds: few clouds at 400 feet AGL
overcast cloud deck at 6200 feet AGL
Weather: no significant weather observed at this time

METAR text: EFMA 230750Z 29004KT CAVOK M03/M04 Q1008
Conditions at: EFMA (MARIEHAMN/ALAND , FI) observed 0750 UTC 23 January 2019
Temperature: -3.0°C (27°F)
Dewpoint: -4.0°C (25°F) [RH = 93%]
Pressure (altimeter): 29.76 inches Hg (1008.0 mb)
Winds: from the WNW (290 degrees) at 5 MPH (4 knots; 2.1 m/s)
Visibility: 6 or more miles (10+ km)
Ceiling: ceiling and visibility are OK
Clouds: unknown
Weather: no significant weather observed at this time

METAR text: EFMA 230720Z 29004KT 9999 FEW006 BKN062 M02/M04 Q1008
Conditions at: EFMA (MARIEHAMN/ALAND , FI) observed 0720 UTC 23 January 2019
Temperature: -2.0°C (28°F)
Dewpoint: -4.0°C (25°F) [RH = 86%]
Pressure (altimeter): 29.76 inches Hg (1008.0 mb)
Winds: from the WNW (290 degrees) at 5 MPH (4 knots; 2.1 m/s)
Visibility: 6 or more miles (10+ km)
Ceiling: 6200 feet AGL
Clouds: few clouds at 600 feet AGL
broken clouds at 6200 feet AGL
Weather: no significant weather observed at this time

METAR text: EFMA 230650Z VRB02KT 9999 BKN008 OVC061 M02/M03 Q1007
Conditions at: EFMA (MARIEHAMN/ALAND , FI) observed 0650 UTC 23 January 2019
Temperature: -2.0°C (28°F)
Dewpoint: -3.0°C (27°F) [RH = 93%]
Pressure (altimeter): 29.73 inches Hg (1007.0 mb)
Winds: variable direction winds at 2 MPH (2 knots; 1.0 m/s)
Visibility: 6 or more miles (10+ km)
Ceiling: 800 feet AGL
Clouds: broken clouds at 800 feet AGL
overcast cloud deck at 6100 feet AGL
Weather: no significant weather observed at this time

METAR text: EFMA 230620Z AUTO 30003KT 270V330 9999 -SHSN BKN009 OVC062 M02/M03 Q1007
Conditions at: EFMA (MARIEHAMN/ALAND , FI) observed 0620 UTC 23 January 2019
Temperature: -2.0°C (28°F)
Dewpoint: -3.0°C (27°F) [RH = 93%]
Pressure (altimeter): 29.73 inches Hg (1007.0 mb)
Winds: from the WNW (300 degrees) at 3 MPH (3 knots; 1.5 m/s)
Visibility: 6 or more miles (10+ km)
Ceiling: 900 feet AGL
Clouds: broken clouds at 900 feet AGL
overcast cloud deck at 6200 feet AGL
Weather: -SHSN  (light snow showers)

METAR text: EFMA 230550Z AUTO VRB01KT 9000 -SN OVC047 M03/M04 Q1007
Conditions at: EFMA (MARIEHAMN/ALAND , FI) observed 0550 UTC 23 January 2019
Temperature: -3.0°C (27°F)
Dewpoint: -4.0°C (25°F) [RH = 93%]
Pressure (altimeter): 29.73 inches Hg (1007.0 mb)
Winds: variable direction winds at 1 MPH (1 knots; 0.5 m/s)
Visibility: 6 miles ( 9 km)
Ceiling: 4700 feet AGL
Clouds: overcast cloud deck at 4700 feet AGL
Weather: -SN  (light snow)

METAR text: EFMA 230520Z AUTO VRB01KT 9999 SCT042 BKN064 M04/M05 Q1007
Conditions at: EFMA (MARIEHAMN/ALAND , FI) observed 0520 UTC 23 January 2019
Temperature: -4.0°C (25°F)
Dewpoint: -5.0°C (23°F) [RH = 93%]
Pressure (altimeter): 29.73 inches Hg (1007.0 mb)
Winds: variable direction winds at 1 MPH (1 knots; 0.5 m/s)
Visibility: 6 or more miles (10+ km)
Ceiling: 6400 feet AGL
Clouds: scattered clouds at 4200 feet AGL
broken clouds at 6400 feet AGL
Weather: no significant weather observed at this time

METAR text: EFMA 230450Z AUTO VRB01KT CAVOK M03/M04 Q1007
Conditions at: EFMA (MARIEHAMN/ALAND , FI) observed 0450 UTC 23 January 2019
Temperature: -3.0°C (27°F)
Dewpoint: -4.0°C (25°F) [RH = 93%]
Pressure (altimeter): 29.73 inches Hg (1007.0 mb)
Winds: variable direction winds at 1 MPH (1 knots; 0.5 m/s)
Visibility: 6 or more miles (10+ km)
Ceiling: ceiling and visibility are OK
Clouds: unknown
Weather: no significant weather observed at this time

METAR text: EFMA 230420Z AUTO VRB02KT 9999 BKN039 BKN065 M02/M03 Q1007
Conditions at: EFMA (MARIEHAMN/ALAND , FI) observed 0420 UTC 23 January 2019
Temperature: -2.0°C (28°F)
Dewpoint: -3.0°C (27°F) [RH = 93%]
Pressure (altimeter): 29.73 inches Hg (1007.0 mb)
Winds: variable direction winds at 2 MPH (2 knots; 1.0 m/s)
Visibility: 6 or more miles (10+ km)
Ceiling: 3900 feet AGL
Clouds: broken clouds at 3900 feet AGL
broken clouds at 6500 feet AGL
Weather: no significant weather observed at this time

METAR text: EFMA 230350Z AUTO VRB02KT 9999 OVC039 M02/M03 Q1007
Conditions at: EFMA (MARIEHAMN/ALAND , FI) observed 0350 UTC 23 January 2019
Temperature: -2.0°C (28°F)
Dewpoint: -3.0°C (27°F) [RH = 93%]
Pressure (altimeter): 29.73 inches Hg (1007.0 mb)
Winds: variable direction winds at 2 MPH (2 knots; 1.0 m/s)
Visibility: 6 or more miles (10+ km)
Ceiling: 3900 feet AGL
Clouds: overcast cloud deck at 3900 feet AGL
Weather: no significant weather observed at this time

METAR text: EFMA 230320Z AUTO VRB02KT 9999 BKN043 BKN058 BKN079 M03/M03 Q1007
Conditions at: EFMA (MARIEHAMN/ALAND , FI) observed 0320 UTC 23 January 2019
Temperature: -3.0°C (27°F)
Dewpoint: -3.0°C (27°F) [RH = 100%]
Pressure (altimeter): 29.73 inches Hg (1007.0 mb)
Winds: variable direction winds at 2 MPH (2 knots; 1.0 m/s)
Visibility: 6 or more miles (10+ km)
Ceiling: 4300 feet AGL
Clouds: broken clouds at 4300 feet AGL
broken clouds at 5800 feet AGL
broken clouds at 7900 feet AGL
Weather: no significant weather observed at this time

METAR text: EFMA 230250Z AUTO 33003KT 300V360 9999 BKN037 BKN060 M02/M03 Q1007
Conditions at: EFMA (MARIEHAMN/ALAND , FI) observed 0250 UTC 23 January 2019
Temperature: -2.0°C (28°F)
Dewpoint: -3.0°C (27°F) [RH = 93%]
Pressure (altimeter): 29.73 inches Hg (1007.0 mb)
Winds: from the NNW (330 degrees) at 3 MPH (3 knots; 1.5 m/s)
Visibility: 6 or more miles (10+ km)
Ceiling: 3700 feet AGL
Clouds: broken clouds at 3700 feet AGL
broken clouds at 6000 feet AGL
Weather: no significant weather observed at this time

METAR text: EFMA 230220Z AUTO VRB02KT 9999 -FZRASN OVC035 M01/M02 Q1007
Conditions at: EFMA (MARIEHAMN/ALAND , FI) observed 0220 UTC 23 January 2019
Temperature: -1.0°C (30°F)
Dewpoint: -2.0°C (28°F) [RH = 93%]
Pressure (altimeter): 29.73 inches Hg (1007.0 mb)
Winds: variable direction winds at 2 MPH (2 knots; 1.0 m/s)
Visibility: 6 or more miles (10+ km)
Ceiling: 3500 feet AGL
Clouds: overcast cloud deck at 3500 feet AGL
Weather: -FZRA SN  (light freezing rain, moderate snow)

METAR text: EFMA 230150Z AUTO 34003KT 9999 -SN OVC032 M01/M02 Q1007
Conditions at: EFMA (MARIEHAMN/ALAND , FI) observed 0150 UTC 23 January 2019
Temperature: -1.0°C (30°F)
Dewpoint: -2.0°C (28°F) [RH = 93%]
Pressure (altimeter): 29.73 inches Hg (1007.0 mb)
Winds: from the NNW (340 degrees) at 3 MPH (3 knots; 1.5 m/s)
Visibility: 6 or more miles (10+ km)
Ceiling: 3200 feet AGL
Clouds: overcast cloud deck at 3200 feet AGL
Weather: -SN  (light snow)

METAR text: EFMA 230120Z AUTO 33002KT 9999 -FZRASN OVC028 M01/M02 Q1007
Conditions at: EFMA (MARIEHAMN/ALAND , FI) observed 0120 UTC 23 January 2019
Temperature: -1.0°C (30°F)
Dewpoint: -2.0°C (28°F) [RH = 93%]
Pressure (altimeter): 29.73 inches Hg (1007.0 mb)
Winds: from the NNW (330 degrees) at 2 MPH (2 knots; 1.0 m/s)
Visibility: 6 or more miles (10+ km)
Ceiling: 2800 feet AGL
Clouds: overcast cloud deck at 2800 feet AGL
Weather: -FZRA SN  (light freezing rain, moderate snow)

METAR text: EFMA 230050Z AUTO 35002KT 9999 -SN FEW010 BKN026 OVC033 M01/M01 Q1007
Conditions at: EFMA (MARIEHAMN/ALAND , FI) observed 0050 UTC 23 January 2019
Temperature: -1.0°C (30°F)
Dewpoint: -1.0°C (30°F) [RH = 100%]
Pressure (altimeter): 29.73 inches Hg (1007.0 mb)
Winds: from the N (350 degrees) at 2 MPH (2 knots; 1.0 m/s)
Visibility: 6 or more miles (10+ km)
Ceiling: 2600 feet AGL
Clouds: few clouds at 1000 feet AGL
broken clouds at 2600 feet AGL
overcast cloud deck at 3300 feet AGL
Weather: -SN  (light snow)

METAR text: EFMA 230020Z AUTO 31001KT 9999 -FZRASN FEW008 SCT027 M01/M02 Q1007
Conditions at: EFMA (MARIEHAMN/ALAND , FI) observed 0020 UTC 23 January 2019
Temperature: -1.0°C (30°F)
Dewpoint: -2.0°C (28°F) [RH = 93%]
Pressure (altimeter): 29.73 inches Hg (1007.0 mb)
Winds: from the NW (310 degrees) at 1 MPH (1 knots; 0.5 m/s)
Visibility: 6 or more miles (10+ km)
Ceiling: at least 12,000 feet AGL
Clouds: few clouds at 800 feet AGL
scattered clouds at 2700 feet AGL
Weather: -FZRA SN  (light freezing rain, moderate snow)

METAR text: EFMA 222350Z AUTO VRB01KT 9999 -FZRASN BKN007 OVC049 M00/M01 Q1007
Conditions at: EFMA (MARIEHAMN/ALAND , FI) observed 2350 UTC 22 January 2019
Temperature: 0.0°C (32°F)
Dewpoint: -1.0°C (30°F) [RH = 93%]
Pressure (altimeter): 29.73 inches Hg (1007.0 mb)
Winds: variable direction winds at 1 MPH (1 knots; 0.5 m/s)
Visibility: 6 or more miles (10+ km)
Ceiling: 700 feet AGL
Clouds: broken clouds at 700 feet AGL
overcast cloud deck at 4900 feet AGL
Weather: -FZRA SN  (light freezing rain, moderate snow)

METAR text: EFMA 222320Z AUTO VRB02KT 9999 -SN BKN008 OVC056 M00/M01 Q1007
Conditions at: EFMA (MARIEHAMN/ALAND , FI) observed 2320 UTC 22 January 2019
Temperature: 0.0°C (32°F)
Dewpoint: -1.0°C (30°F) [RH = 93%]
Pressure (altimeter): 29.73 inches Hg (1007.0 mb)
Winds: variable direction winds at 2 MPH (2 knots; 1.0 m/s)
Visibility: 6 or more miles (10+ km)
Ceiling: 800 feet AGL
Clouds: broken clouds at 800 feet AGL
overcast cloud deck at 5600 feet AGL
Weather: -SN  (light snow)

METAR text: EFMA 222250Z AUTO 22003KT 200V260 9999 SCT011 BKN043 BKN083 00/M01 Q1007
Conditions at: EFMA (MARIEHAMN/ALAND , FI) observed 2250 UTC 22 January 2019
Temperature: 0.0°C (32°F)
Dewpoint: -1.0°C (30°F) [RH = 93%]
Pressure (altimeter): 29.73 inches Hg (1007.0 mb)
Winds: from the SW (220 degrees) at 3 MPH (3 knots; 1.5 m/s)
Visibility: 6 or more miles (10+ km)
Ceiling: 4300 feet AGL
Clouds: scattered clouds at 1100 feet AGL
broken clouds at 4300 feet AGL
broken clouds at 8300 feet AGL
Weather: no significant weather observed at this time

METAR text: EFMA 222220Z AUTO 23003KT 200V260 9999 OVC011 00/M01 Q1008
Conditions at: EFMA (MARIEHAMN/ALAND , FI) observed 2220 UTC 22 January 2019
Temperature: 0.0°C (32°F)
Dewpoint: -1.0°C (30°F) [RH = 93%]
Pressure (altimeter): 29.76 inches Hg (1008.0 mb)
Winds: from the SW (230 degrees) at 3 MPH (3 knots; 1.5 m/s)
Visibility: 6 or more miles (10+ km)
Ceiling: 1100 feet AGL
Clouds: overcast cloud deck at 1100 feet AGL
Weather: no significant weather observed at this time

METAR text: EFMA 222150Z AUTO 24004KT 200V280 9999 BKN011 BKN085 00/M01 Q1008
Conditions at: EFMA (MARIEHAMN/ALAND , FI) observed 2150 UTC 22 January 2019
Temperature: 0.0°C (32°F)
Dewpoint: -1.0°C (30°F) [RH = 93%]
Pressure (altimeter): 29.76 inches Hg (1008.0 mb)
Winds: from the WSW (240 degrees) at 5 MPH (4 knots; 2.1 m/s)
Visibility: 6 or more miles (10+ km)
Ceiling: 1100 feet AGL
Clouds: broken clouds at 1100 feet AGL
broken clouds at 8500 feet AGL
Weather: no significant weather observed at this time

METAR text: EFMA 222120Z AUTO 24005KT 200V280 9999 -SHRA BKN011 BKN059 01/M01 Q1008
Conditions at: EFMA (MARIEHAMN/ALAND , FI) observed 2120 UTC 22 January 2019
Temperature: 1.0°C (34°F)
Dewpoint: -1.0°C (30°F) [RH = 86%]
Pressure (altimeter): 29.76 inches Hg (1008.0 mb)
Winds: from the WSW (240 degrees) at 6 MPH (5 knots; 2.6 m/s)
Visibility: 6 or more miles (10+ km)
Ceiling: 1100 feet AGL
Clouds: broken clouds at 1100 feet AGL
broken clouds at 5900 feet AGL
Weather: -SHRA  (light rain showers)

METAR text: EFMA 222050Z AUTO 22005KT 190V260 9999 -SNRA OVC004 01/M00 Q1008
Conditions at: EFMA (MARIEHAMN/ALAND , FI) observed 2050 UTC 22 January 2019
Temperature: 1.0°C (34°F)
Dewpoint: 0.0°C (32°F) [RH = 93%]
Pressure (altimeter): 29.76 inches Hg (1008.0 mb)
Winds: from the SW (220 degrees) at 6 MPH (5 knots; 2.6 m/s)
Visibility: 6 or more miles (10+ km)
Ceiling: 400 feet AGL
Clouds: overcast cloud deck at 400 feet AGL
Weather: -SN -RA  (light snow, light rain)

METAR text: EFMA 222020Z 18009KT 4500 -SNRA OVC003 00/M00 Q1008
Conditions at: EFMA (MARIEHAMN/ALAND , FI) observed 2020 UTC 22 January 2019
Temperature: 0.0°C (32°F)
Dewpoint: 0.0°C (32°F) [RH = 100%]
Pressure (altimeter): 29.76 inches Hg (1008.0 mb)
Winds: from the S (180 degrees) at 10 MPH (9 knots; 4.6 m/s)
Visibility: 2.80 miles (4.51 km)
Ceiling: 300 feet AGL
Clouds: overcast cloud deck at 300 feet AGL
Weather: -SN -RA  (light snow, light rain)

METAR text: EFMA 221950Z 17009KT 4500 -SN OVC005 00/M01 Q1008
Conditions at: EFMA (MARIEHAMN/ALAND , FI) observed 1950 UTC 22 January 2019
Temperature: 0.0°C (32°F)
Dewpoint: -1.0°C (30°F) [RH = 93%]
Pressure (altimeter): 29.76 inches Hg (1008.0 mb)
Winds: from the S (170 degrees) at 10 MPH (9 knots; 4.6 m/s)
Visibility: 2.80 miles (4.51 km)
Ceiling: 500 feet AGL
Clouds: overcast cloud deck at 500 feet AGL
Weather: -SN  (light snow)

METAR text: EFMA 221920Z AUTO 16008KT 9999 -SN OVC008 00/M01 Q1008
Conditions at: EFMA (MARIEHAMN/ALAND , FI) observed 1920 UTC 22 January 2019
Temperature: 0.0°C (32°F)
Dewpoint: -1.0°C (30°F) [RH = 93%]
Pressure (altimeter): 29.76 inches Hg (1008.0 mb)
Winds: from the SSE (160 degrees) at 9 MPH (8 knots; 4.1 m/s)
Visibility: 6 or more miles (10+ km)
Ceiling: 800 feet AGL
Clouds: overcast cloud deck at 800 feet AGL
Weather: -SN  (light snow)

METAR text: EFMA 221850Z AUTO 16006KT 9999 -SHRA BKN006 OVC050 00/M01 Q1008
Conditions at: EFMA (MARIEHAMN/ALAND , FI) observed 1850 UTC 22 January 2019
Temperature: 0.0°C (32°F)
Dewpoint: -1.0°C (30°F) [RH = 93%]
Pressure (altimeter): 29.76 inches Hg (1008.0 mb)
Winds: from the SSE (160 degrees) at 7 MPH (6 knots; 3.1 m/s)
Visibility: 6 or more miles (10+ km)
Ceiling: 600 feet AGL
Clouds: broken clouds at 600 feet AGL
overcast cloud deck at 5000 feet AGL
Weather: -SHRA  (light rain showers)

METAR text: EFMA 221820Z AUTO 18010KT 9999 -SHRA FEW010 BKN052 OVC098 00/M01 Q1009
Conditions at: EFMA (MARIEHAMN/ALAND , FI) observed 1820 UTC 22 January 2019
Temperature: 0.0°C (32°F)
Dewpoint: -1.0°C (30°F) [RH = 93%]
Pressure (altimeter): 29.79 inches Hg (1009.0 mb)
Winds: from the S (180 degrees) at 12 MPH (10 knots; 5.1 m/s)
Visibility: 6 or more miles (10+ km)
Ceiling: 5200 feet AGL
Clouds: few clouds at 1000 feet AGL
broken clouds at 5200 feet AGL
overcast cloud deck at 9800 feet AGL
Weather: -SHRA  (light rain showers)

METAR text: EFMA 221750Z AUTO 19011KT 9999 -SHSN SCT017 BKN046 BKN057 01/M02 Q1009
Conditions at: EFMA (MARIEHAMN/ALAND , FI) observed 1750 UTC 22 January 2019
Temperature: 1.0°C (34°F)
Dewpoint: -2.0°C (28°F) [RH = 80%]
Pressure (altimeter): 29.79 inches Hg (1009.0 mb)
Winds: from the S (190 degrees) at 13 MPH (11 knots; 5.7 m/s)
Visibility: 6 or more miles (10+ km)
Ceiling: 4600 feet AGL
Clouds: scattered clouds at 1700 feet AGL
broken clouds at 4600 feet AGL
broken clouds at 5700 feet AGL
Weather: -SHSN  (light snow showers)

METAR text: EFMA 221720Z AUTO 17007KT CAVOK 01/M02 Q1009
Conditions at: EFMA (MARIEHAMN/ALAND , FI) observed 1720 UTC 22 January 2019
Temperature: 1.0°C (34°F)
Dewpoint: -2.0°C (28°F) [RH = 80%]
Pressure (altimeter): 29.79 inches Hg (1009.0 mb)
Winds: from the S (170 degrees) at 8 MPH (7 knots; 3.6 m/s)
Visibility: 6 or more miles (10+ km)
Ceiling: ceiling and visibility are OK
Clouds: unknown
Weather: no significant weather observed at this time

METAR text: EFMA 221650Z AUTO 17007KT 9999 SCT012 SCT047 BKN092 00/M02 Q1009
Conditions at: EFMA (MARIEHAMN/ALAND , FI) observed 1650 UTC 22 January 2019
Temperature: 0.0°C (32°F)
Dewpoint: -2.0°C (28°F) [RH = 86%]
Pressure (altimeter): 29.79 inches Hg (1009.0 mb)
Winds: from the S (170 degrees) at 8 MPH (7 knots; 3.6 m/s)
Visibility: 6 or more miles (10+ km)
Ceiling: 9200 feet AGL
Clouds: scattered clouds at 1200 feet AGL
scattered clouds at 4700 feet AGL
broken clouds at 9200 feet AGL
Weather: no significant weather observed at this time

Forecast for: EFMA (MARIEHAMN/ALAND , FI)
Text: TAF EFMA 240222Z 2403/2412 29003KT CAVOK
Forecast period: 0300 to 1200 UTC 24 January 2019
Forecast type: FROM: standard forecast or significant change
Winds: from the WNW (290 degrees) at 3 MPH (3 knots; 1.5 m/s)
Visibility: 6 or more miles 10+ km)
Ceiling: unknown
Clouds: missing
Weather: NSW  (no significant weather)
Text: PROB30
Forecast period: 0300 to 0600 UTC 24 January 2019
Forecast type: TEMPORARY: The following changes expected for less than half the time period
Visibility: 0.62 miles (1.00 km)
Ceiling: unknown
Clouds: missing
Weather: BR  (mist)